createdAt,value
2018-03-19T00:00:18.709Z,85.10
2018-03-19T00:01:21.394Z,86.00
2018-03-19T00:02:23.873Z,86.60
2018-03-19T00:03:26.355Z,86.20
2018-03-19T00:04:28.817Z,86.80
2018-03-19T00:05:31.392Z,87.70
2018-03-19T00:06:33.936Z,87.30
2018-03-19T00:07:36.415Z,88.70
2018-03-19T00:08:38.877Z,87.60
2018-03-19T00:09:41.492Z,88.70
2018-03-19T00:10:43.958Z,87.10
2018-03-19T00:11:47.276Z,86.50
2018-03-19T00:12:49.763Z,86.50
2018-03-19T00:13:52.232Z,86.70
2018-03-19T00:14:54.742Z,88.90
2018-03-19T00:15:57.307Z,87.50
2018-03-19T00:17:00.584Z,86.30
2018-03-19T00:18:03.086Z,86.30
2018-03-19T00:19:05.571Z,87.50
2018-03-19T00:20:08.058Z,88.20
2018-03-19T00:21:10.623Z,88.00
2018-03-19T00:22:13.141Z,86.80
2018-03-19T00:23:15.623Z,86.70
2018-03-19T00:24:18.090Z,85.50
2018-03-19T00:25:20.639Z,86.70
2018-03-19T00:26:23.151Z,87.20
2018-03-19T00:27:25.652Z,87.80
2018-03-19T00:28:28.116Z,87.70
2018-03-19T00:29:31.374Z,88.50
2018-03-19T00:30:34.620Z,86.90
2018-03-19T00:31:37.136Z,86.80
2018-03-19T00:32:40.425Z,88.00
2018-03-19T00:33:42.909Z,87.90
2018-03-19T00:34:46.498Z,87.60
2018-03-19T00:35:49.097Z,87.60
2018-03-19T00:36:51.630Z,87.60
2018-03-19T00:37:54.115Z,88.50
2018-03-19T00:38:58.115Z,89.70
2018-03-19T00:40:01.134Z,89.70
2018-03-19T00:41:04.377Z,88.80
2018-03-19T00:42:07.611Z,88.60
2018-03-19T00:43:10.871Z,88.90
2018-03-19T00:44:14.106Z,89.40
2018-03-19T00:45:16.618Z,88.70
2018-03-19T00:46:19.840Z,90.50
2018-03-19T00:47:22.336Z,90.40
2018-03-19T00:48:24.808Z,90.10
2018-03-19T00:49:28.495Z,88.00
2018-03-19T00:50:31.130Z,88.10
2018-03-19T00:51:33.671Z,87.40
2018-03-19T00:52:36.187Z,88.40
2018-03-19T00:53:38.646Z,88.40
2018-03-19T00:54:41.144Z,86.80
2018-03-19T00:55:43.597Z,88.20
2018-03-19T00:56:46.069Z,87.80
2018-03-19T00:57:48.601Z,88.10
2018-03-19T00:58:51.049Z,89.60
2018-03-19T00:59:53.641Z,88.30
2018-03-19T01:00:56.224Z,89.50
2018-03-19T01:01:58.722Z,89.10
2018-03-19T01:03:01.419Z,89.20
2018-03-19T01:04:04.647Z,90.20
2018-03-19T01:05:07.142Z,90.20
2018-03-19T01:06:09.725Z,89.60
2018-03-19T01:07:12.218Z,88.60
2018-03-19T01:08:14.787Z,88.70
2018-03-19T01:09:17.281Z,89.20
2018-03-19T01:10:20.581Z,88.10
2018-03-19T01:11:23.110Z,88.10
2018-03-19T01:12:25.592Z,88.30
2018-03-19T01:13:28.111Z,88.40
2018-03-19T01:14:31.359Z,88.40
2018-03-19T01:15:33.912Z,88.30
2018-03-19T01:16:36.420Z,89.70
2018-03-19T01:17:38.910Z,90.90
2018-03-19T01:18:41.477Z,91.10
2018-03-19T01:19:43.941Z,90.90
2018-03-19T01:20:46.407Z,91.30
2018-03-19T01:21:48.895Z,90.60
2018-03-19T01:22:51.411Z,90.20
2018-03-19T01:23:53.912Z,91.80
2018-03-19T01:24:56.392Z,90.60
2018-03-19T01:25:59.635Z,91.10
2018-03-19T01:27:02.907Z,90.80
2018-03-19T01:28:05.375Z,90.80
2018-03-19T01:29:07.845Z,91.10
2018-03-19T01:30:10.366Z,90.40
2018-03-19T01:31:13.609Z,90.10
2018-03-19T01:32:16.187Z,90.00
2018-03-19T01:33:18.637Z,90.00
2018-03-19T01:34:21.107Z,90.50
2018-03-19T01:35:23.621Z,91.20
2018-03-19T01:36:26.114Z,91.00
2018-03-19T01:37:28.704Z,90.60
2018-03-19T01:38:31.186Z,90.70
2018-03-19T01:39:34.463Z,90.40
2018-03-19T01:40:36.987Z,90.40
2018-03-19T01:41:39.462Z,90.30
2018-03-19T01:42:42.732Z,91.10
2018-03-19T01:43:45.254Z,91.00
2018-03-19T01:44:48.519Z,91.20
2018-03-19T01:45:51.030Z,91.20
2018-03-19T01:46:53.506Z,91.70
2018-03-19T01:47:55.991Z,91.10
2018-03-19T01:48:58.485Z,91.30
2018-03-19T01:50:01.114Z,91.40
2018-03-19T01:51:04.405Z,91.30
2018-03-19T01:52:06.883Z,91.30
2018-03-19T01:53:10.118Z,91.10
2018-03-19T01:54:13.357Z,91.70
2018-03-19T01:55:16.633Z,92.00
2018-03-19T01:56:19.114Z,92.00
2018-03-19T01:57:23.097Z,91.90
2018-03-19T01:58:25.640Z,91.90
2018-03-19T01:59:28.281Z,91.70
2018-03-19T02:00:31.626Z,91.80
2018-03-19T02:01:34.130Z,91.90
2018-03-19T02:02:37.213Z,92.50
2018-03-19T02:03:39.673Z,92.70
2018-03-19T02:04:43.003Z,91.80
2018-03-19T02:05:45.515Z,91.80
2018-03-19T02:06:47.986Z,92.70
2018-03-19T02:07:50.473Z,93.80
2018-03-19T02:08:53.760Z,92.40
2018-03-19T02:09:56.228Z,92.40
2018-03-19T02:10:58.740Z,92.30
2018-03-19T02:12:01.201Z,92.80
2018-03-19T02:13:03.671Z,93.00
2018-03-19T02:14:07.381Z,93.60
2018-03-19T02:15:09.912Z,93.30
2018-03-19T02:16:12.378Z,93.70
2018-03-19T02:17:14.941Z,93.40
2018-03-19T02:18:17.408Z,93.70
2018-03-19T02:19:19.876Z,94.80
2018-03-19T02:20:22.478Z,95.30
2018-03-19T02:21:24.998Z,94.90
2018-03-19T02:22:27.473Z,95.40
2018-03-19T02:23:30.072Z,94.90
2018-03-19T02:24:32.639Z,94.30
2018-03-19T02:25:35.145Z,95.00
2018-03-19T02:26:38.439Z,94.90
2018-03-19T02:27:40.904Z,94.90
2018-03-19T02:28:43.962Z,94.90
2018-03-19T02:29:46.448Z,94.30
2018-03-19T02:30:48.916Z,94.80
2018-03-19T02:31:52.202Z,95.90
2018-03-19T02:32:54.705Z,95.90
2018-03-19T02:33:57.175Z,95.10
2018-03-19T02:34:59.649Z,95.20
2018-03-19T02:36:02.887Z,95.10
2018-03-19T02:37:06.131Z,95.80
2018-03-19T02:38:08.593Z,95.50
2018-03-19T02:39:11.088Z,95.90
2018-03-19T02:40:14.331Z,96.00
2018-03-19T02:41:17.597Z,96.40
2018-03-19T02:42:20.133Z,96.40
2018-03-19T02:43:22.585Z,96.70
2018-03-19T02:44:25.165Z,97.20
2018-03-19T02:45:27.683Z,96.50
2018-03-19T02:46:30.956Z,96.70
2018-03-19T02:47:33.434Z,96.70
2018-03-19T02:48:36.702Z,97.20
2018-03-19T02:49:39.212Z,97.20
2018-03-19T02:50:42.466Z,96.70
2018-03-19T02:51:44.947Z,96.70
2018-03-19T02:52:47.413Z,96.60
2018-03-19T02:53:50.677Z,96.90
2018-03-19T02:54:53.165Z,96.90
2018-03-19T02:55:55.674Z,97.40
2018-03-19T02:56:58.196Z,97.60
2018-03-19T02:58:02.201Z,96.70
2018-03-19T02:59:04.668Z,96.70
2018-03-19T03:00:07.172Z,97.20
2018-03-19T03:01:09.651Z,97.30
2018-03-19T03:02:12.918Z,97.40
2018-03-19T03:03:15.445Z,97.40
2018-03-19T03:04:17.909Z,97.60
2018-03-19T03:05:20.436Z,97.60
2018-03-19T03:06:22.922Z,97.60
2018-03-19T03:07:25.402Z,98.40
2018-03-19T03:08:27.866Z,98.40
2018-03-19T03:09:30.327Z,98.00
2018-03-19T03:10:32.795Z,98.20
2018-03-19T03:11:36.038Z,98.70
2018-03-19T03:12:39.323Z,98.80
2018-03-19T03:13:41.818Z,98.80
2018-03-19T03:14:44.293Z,98.50
2018-03-19T03:15:46.753Z,98.90
2018-03-19T03:16:50.226Z,98.90
2018-03-19T03:17:53.366Z,98.80
2018-03-19T03:18:55.885Z,98.20
2018-03-19T03:19:58.391Z,98.80
2018-03-19T03:21:01.635Z,99.10
2018-03-19T03:22:04.884Z,98.30
2018-03-19T03:23:08.105Z,98.70
2018-03-19T03:24:10.642Z,98.70
2018-03-19T03:25:13.175Z,99.30
2018-03-19T03:26:16.410Z,98.90
2018-03-19T03:27:19.696Z,98.90
2018-03-19T03:28:22.211Z,98.80
2018-03-19T03:29:24.723Z,99.00
2018-03-19T03:30:27.257Z,99.00
2018-03-19T03:31:29.747Z,99.50
2018-03-19T03:32:32.226Z,99.40
2018-03-19T03:33:34.753Z,99.50
2018-03-19T03:34:37.259Z,99.30
2018-03-19T03:35:39.806Z,99.80
2018-03-19T03:36:42.290Z,99.60
2018-03-19T03:37:45.540Z,98.90
2018-03-19T03:38:48.788Z,98.40
2018-03-19T03:39:51.368Z,98.40
2018-03-19T03:40:53.867Z,99.40
2018-03-19T03:41:56.317Z,99.50
2018-03-19T03:42:58.798Z,99.90
2018-03-19T03:44:01.280Z,99.90
2018-03-19T03:45:04.533Z,99.70
2018-03-19T03:46:07.807Z,99.90
2018-03-19T03:47:10.294Z,99.80
2018-03-19T03:48:12.753Z,99.60
2018-03-19T03:49:15.997Z,99.90
2018-03-19T03:50:18.489Z,99.90
2018-03-19T03:51:20.989Z,99.90
2018-03-19T03:52:23.471Z,99.90
2018-03-19T03:53:25.925Z,99.90
2018-03-19T03:54:28.379Z,99.90
2018-03-19T03:55:30.851Z,99.90
2018-03-19T03:56:33.343Z,99.90
2018-03-19T03:57:37.335Z,99.90
2018-03-19T03:58:39.852Z,99.90
2018-03-19T03:59:43.108Z,99.90
2018-03-19T04:00:45.604Z,99.90
2018-03-19T04:01:48.886Z,99.90
2018-03-19T04:02:51.346Z,99.90
2018-03-19T04:03:53.822Z,99.90
2018-03-19T04:04:56.306Z,99.90
2018-03-19T04:05:59.563Z,99.90
2018-03-19T04:07:02.830Z,99.90
2018-03-19T04:08:05.327Z,99.90
2018-03-19T04:09:08.595Z,99.90
2018-03-19T04:10:11.144Z,99.90
2018-03-19T04:11:13.630Z,99.90
2018-03-19T04:12:16.903Z,99.90
2018-03-19T04:13:19.393Z,99.90
2018-03-19T04:14:22.772Z,99.90
2018-03-19T04:15:25.334Z,99.90
2018-03-19T04:16:27.809Z,99.90
2018-03-19T04:17:30.322Z,99.90
2018-03-19T04:18:33.574Z,99.90
2018-03-19T04:19:36.810Z,99.90
2018-03-19T04:20:40.046Z,99.90
2018-03-19T04:21:43.313Z,99.90
2018-03-19T04:22:45.767Z,99.90
2018-03-19T04:23:48.306Z,99.90
2018-03-19T04:24:50.784Z,99.90
2018-03-19T04:25:53.310Z,99.90
2018-03-19T04:26:55.810Z,99.90
2018-03-19T04:27:59.053Z,99.90
2018-03-19T04:29:02.304Z,99.90
2018-03-19T04:30:05.555Z,99.90
2018-03-19T04:31:08.817Z,99.90
2018-03-19T04:32:11.371Z,99.90
2018-03-19T04:33:13.842Z,99.90
2018-03-19T04:34:17.147Z,99.90
2018-03-19T04:35:20.186Z,99.90
2018-03-19T04:36:22.677Z,99.90
2018-03-19T04:37:25.181Z,99.90
2018-03-19T04:38:28.440Z,99.90
2018-03-19T04:39:30.975Z,99.90
2018-03-19T04:40:33.494Z,99.90
2018-03-19T04:41:36.005Z,99.90
2018-03-19T04:42:38.483Z,99.90
2018-03-19T04:43:41.043Z,99.90
2018-03-19T04:44:44.326Z,99.90
2018-03-19T04:45:46.791Z,99.90
2018-03-19T04:46:50.079Z,99.90
2018-03-19T04:47:52.534Z,99.90
2018-03-19T04:48:55.044Z,99.90
2018-03-19T04:49:59.237Z,99.90
2018-03-19T04:51:01.723Z,99.90
2018-03-19T04:52:04.288Z,99.90
2018-03-19T04:53:06.804Z,99.90
2018-03-19T04:54:09.265Z,99.90
2018-03-19T04:55:12.681Z,99.90
2018-03-19T04:56:15.162Z,99.90
2018-03-19T04:57:17.646Z,99.90
2018-03-19T04:58:20.111Z,99.90
2018-03-19T04:59:23.339Z,99.90
2018-03-19T05:00:26.720Z,99.90
2018-03-19T05:01:29.453Z,99.90
2018-03-19T05:02:31.970Z,99.90
2018-03-19T05:03:34.499Z,99.90
2018-03-19T05:04:36.967Z,99.90
2018-03-19T05:05:39.454Z,99.90
2018-03-19T05:06:42.035Z,99.90
2018-03-19T05:07:45.265Z,99.90
2018-03-19T05:08:47.754Z,99.90
2018-03-19T05:09:50.217Z,99.90
2018-03-19T05:10:53.510Z,99.90
2018-03-19T05:11:56.022Z,99.90
2018-03-19T05:12:58.507Z,99.90
2018-03-19T05:14:01.765Z,99.90
2018-03-19T05:15:05.027Z,99.90
2018-03-19T05:16:07.797Z,99.90
2018-03-19T05:17:10.383Z,99.90
2018-03-19T05:18:12.879Z,99.90
2018-03-19T05:19:16.105Z,99.90
2018-03-19T05:20:20.138Z,99.90
2018-03-19T05:21:22.604Z,99.90
2018-03-19T05:22:25.068Z,99.90
2018-03-19T05:23:27.594Z,99.90
2018-03-19T05:24:30.056Z,99.90
2018-03-19T05:25:32.626Z,99.90
2018-03-19T05:26:38.888Z,99.90
2018-03-19T05:27:41.393Z,99.90
2018-03-19T05:28:43.938Z,99.90
2018-03-19T05:29:46.433Z,99.90
2018-03-19T05:30:49.302Z,99.90
2018-03-19T05:31:51.772Z,99.90
2018-03-19T05:32:55.054Z,99.90
2018-03-19T05:33:57.554Z,99.90
2018-03-19T05:35:00.048Z,99.90
2018-03-19T05:36:02.576Z,99.90
2018-03-19T05:37:05.046Z,99.90
2018-03-19T05:38:07.537Z,99.90
2018-03-19T05:39:10.774Z,99.90
2018-03-19T05:40:14.015Z,99.90
2018-03-19T05:41:17.291Z,99.90
2018-03-19T05:42:19.804Z,99.90
2018-03-19T05:43:22.283Z,99.90
2018-03-19T05:44:25.555Z,99.90
2018-03-19T05:45:28.062Z,99.90
2018-03-19T05:46:31.322Z,99.90
2018-03-19T05:47:34.566Z,99.90
2018-03-19T05:48:37.810Z,99.90
2018-03-19T05:49:41.066Z,99.90
2018-03-19T05:50:43.747Z,99.90
2018-03-19T05:51:47.020Z,99.90
2018-03-19T05:52:50.285Z,99.90
2018-03-19T05:53:52.771Z,99.90
2018-03-19T05:54:55.256Z,99.90
2018-03-19T05:55:57.884Z,99.90
2018-03-19T05:57:00.388Z,99.90
2018-03-19T05:58:02.923Z,99.90
2018-03-19T05:59:05.409Z,99.90
2018-03-19T06:00:09.337Z,99.90
2018-03-19T06:01:12.888Z,99.90
2018-03-19T06:02:15.391Z,99.90
2018-03-19T06:03:17.887Z,99.90
2018-03-19T06:04:21.137Z,99.90
2018-03-19T06:05:24.426Z,99.90
2018-03-19T06:06:26.964Z,99.90
2018-03-19T06:07:29.436Z,99.90
2018-03-19T06:08:31.963Z,99.90
2018-03-19T06:09:34.457Z,99.90
2018-03-19T06:10:36.950Z,99.90
2018-03-19T06:11:39.453Z,99.90
2018-03-19T06:12:41.956Z,99.90
2018-03-19T06:13:44.520Z,99.90
2018-03-19T06:14:47.023Z,99.90
2018-03-19T06:15:49.639Z,99.90
2018-03-19T06:16:52.185Z,99.90
2018-03-19T06:17:54.682Z,99.90
2018-03-19T06:18:57.917Z,99.90
2018-03-19T06:20:01.186Z,99.90
2018-03-19T06:21:03.715Z,99.90
2018-03-19T06:22:06.293Z,99.90
2018-03-19T06:23:09.567Z,99.90
2018-03-19T06:24:12.104Z,99.90
2018-03-19T06:25:14.658Z,99.90
2018-03-19T06:26:17.160Z,99.90
2018-03-19T06:27:19.873Z,99.90
2018-03-19T06:28:22.372Z,99.90
2018-03-19T06:29:25.632Z,99.90
2018-03-19T06:30:28.906Z,99.90
2018-03-19T06:31:31.371Z,99.90
2018-03-19T06:32:34.410Z,99.90
2018-03-19T06:33:36.965Z,99.90
2018-03-19T06:34:40.329Z,99.90
2018-03-19T06:35:42.796Z,99.90
2018-03-19T06:36:45.395Z,99.90
2018-03-19T06:37:47.879Z,99.90
2018-03-19T06:38:51.218Z,99.90
2018-03-19T06:39:54.648Z,99.90
2018-03-19T06:40:57.168Z,99.90
2018-03-19T06:41:59.659Z,99.90
2018-03-19T06:43:02.228Z,99.90
2018-03-19T06:44:04.789Z,99.90
2018-03-19T06:45:07.923Z,99.90
2018-03-19T06:46:10.443Z,99.90
2018-03-19T06:47:13.932Z,99.90
2018-03-19T06:48:17.080Z,99.90
2018-03-19T06:49:19.578Z,99.90
2018-03-19T06:50:22.039Z,99.80
2018-03-19T06:51:24.497Z,99.20
2018-03-19T06:52:27.003Z,98.80
2018-03-19T06:53:29.474Z,98.00
2018-03-19T06:54:32.031Z,97.10
2018-03-19T06:55:34.534Z,95.30
2018-03-19T06:56:37.857Z,95.00
2018-03-19T06:57:41.115Z,93.50
2018-03-19T06:58:44.074Z,93.50
2018-03-19T06:59:46.557Z,93.80
2018-03-19T07:00:49.855Z,92.50
2018-03-19T07:01:52.472Z,92.50
2018-03-19T07:02:55.052Z,91.30
2018-03-19T07:03:57.531Z,90.90
2018-03-19T07:05:00.101Z,88.80
2018-03-19T07:06:02.634Z,90.00
2018-03-19T07:07:05.866Z,91.30
2018-03-19T07:08:08.337Z,91.20
2018-03-19T07:09:10.812Z,90.10
2018-03-19T07:10:13.881Z,90.40
2018-03-19T07:11:16.417Z,90.60
2018-03-19T07:12:18.916Z,89.80
2018-03-19T07:13:22.177Z,88.30
2018-03-19T07:14:24.764Z,88.30
2018-03-19T07:15:27.231Z,86.70
2018-03-19T07:16:29.745Z,86.70
2018-03-19T07:17:32.250Z,86.20
2018-03-19T07:18:35.507Z,84.20
2018-03-19T07:19:38.747Z,82.30
2018-03-19T07:20:42.507Z,80.20
2018-03-19T07:21:45.806Z,79.80
2018-03-19T07:22:48.305Z,79.80
2018-03-19T07:23:50.879Z,81.60
2018-03-19T07:24:54.115Z,82.70
2018-03-19T07:25:56.607Z,82.50
2018-03-19T07:26:59.069Z,81.60
2018-03-19T07:28:01.560Z,80.10
2018-03-19T07:29:04.028Z,80.20
2018-03-19T07:30:06.495Z,80.60
2018-03-19T07:31:08.950Z,78.40
2018-03-19T07:32:11.444Z,77.40
2018-03-19T07:33:13.956Z,77.20
2018-03-19T07:34:16.447Z,77.50
2018-03-19T07:35:18.929Z,77.80
2018-03-19T07:36:21.393Z,78.30
2018-03-19T07:37:24.314Z,79.80
2018-03-19T07:38:26.746Z,81.00
2018-03-19T07:39:30.900Z,81.60
2018-03-19T07:40:34.066Z,81.60
2018-03-19T07:41:37.314Z,78.20
2018-03-19T07:42:40.685Z,77.70
2018-03-19T07:43:43.155Z,77.60
2018-03-19T07:44:45.633Z,76.50
2018-03-19T07:45:48.179Z,77.10
2018-03-19T07:46:50.667Z,77.00
2018-03-19T07:47:53.981Z,76.10
2018-03-19T07:48:56.575Z,76.00
2018-03-19T07:49:59.080Z,74.60
2018-03-19T07:51:01.589Z,68.50
2018-03-19T07:52:04.042Z,69.40
2018-03-19T07:53:06.505Z,67.20
2018-03-19T07:54:09.074Z,64.70
2018-03-19T07:55:12.322Z,68.20
2018-03-19T07:56:14.783Z,68.00
2018-03-19T07:57:17.364Z,66.90
2018-03-19T07:58:19.759Z,68.40
2018-03-19T07:59:22.229Z,70.30
2018-03-19T08:00:24.723Z,68.10
2018-03-19T08:01:27.252Z,63.40
2018-03-19T08:02:30.570Z,64.80
2018-03-19T08:03:33.060Z,64.80
2018-03-19T08:04:35.595Z,65.30
2018-03-19T08:05:38.095Z,63.70
2018-03-19T08:06:40.584Z,61.50
2018-03-19T08:07:43.056Z,63.10
2018-03-19T08:08:45.538Z,61.80
2018-03-19T08:09:48.010Z,59.20
2018-03-19T08:10:50.510Z,57.50
2018-03-19T08:11:52.989Z,59.60
2018-03-19T08:12:55.449Z,59.60
2018-03-19T08:13:58.707Z,57.90
2018-03-19T08:15:01.940Z,54.50
2018-03-19T08:16:05.180Z,50.80
2018-03-19T08:17:08.537Z,51.70
2018-03-19T08:18:10.994Z,51.70
2018-03-19T08:19:13.457Z,53.90
2018-03-19T08:20:15.955Z,56.10
2018-03-19T08:21:18.427Z,57.80
2018-03-19T08:22:21.657Z,56.30
2018-03-19T08:23:24.121Z,56.30
2018-03-19T08:24:26.631Z,54.40
2018-03-19T08:25:29.150Z,54.60
2018-03-19T08:26:31.704Z,55.10
2018-03-19T08:27:34.187Z,52.90
2018-03-19T08:28:37.426Z,48.30
2018-03-19T08:29:39.939Z,48.20
2018-03-19T08:30:42.430Z,48.00
2018-03-19T08:31:44.897Z,47.70
2018-03-19T08:32:47.366Z,49.00
2018-03-19T08:33:49.843Z,48.30
2018-03-19T08:34:52.337Z,47.30
2018-03-19T08:35:54.804Z,47.40
2018-03-19T08:36:58.043Z,46.20
2018-03-19T08:38:01.313Z,47.20
2018-03-19T08:39:03.788Z,47.20
2018-03-19T08:40:06.258Z,48.00
2018-03-19T08:41:08.726Z,47.50
2018-03-19T08:42:11.193Z,47.60
2018-03-19T08:43:13.703Z,48.50
2018-03-19T08:44:16.718Z,50.00
2018-03-19T08:45:19.200Z,48.20
2018-03-19T08:46:21.668Z,48.90
2018-03-19T08:47:24.152Z,47.80
2018-03-19T08:48:26.626Z,46.40
2018-03-19T08:49:29.090Z,47.60
2018-03-19T08:50:31.558Z,46.10
2018-03-19T08:51:34.026Z,46.60
2018-03-19T08:52:37.263Z,48.00
2018-03-19T08:53:40.499Z,46.50
2018-03-19T08:54:43.772Z,47.40
2018-03-19T08:55:46.719Z,47.10
2018-03-19T08:56:49.249Z,46.60
2018-03-19T08:57:51.736Z,47.60
2018-03-19T08:58:54.981Z,47.60
2018-03-19T08:59:58.261Z,46.40
2018-03-19T09:01:00.713Z,46.40
2018-03-19T09:02:03.180Z,46.80
2018-03-19T09:03:06.410Z,49.60
2018-03-19T09:04:09.683Z,49.40
2018-03-19T09:05:12.154Z,49.10
2018-03-19T09:06:14.614Z,50.00
2018-03-19T09:07:17.089Z,50.00
2018-03-19T09:08:19.562Z,52.90
2018-03-19T09:09:22.823Z,54.00
2018-03-19T09:10:25.285Z,54.00
2018-03-19T09:11:27.748Z,54.60
2018-03-19T09:12:30.991Z,53.00
2018-03-19T09:13:34.231Z,52.80
2018-03-19T09:14:37.494Z,50.30
2018-03-19T09:15:39.965Z,50.30
2018-03-19T09:16:42.451Z,51.10
2018-03-19T09:17:44.906Z,50.90
2018-03-19T09:18:47.450Z,51.10
2018-03-19T09:19:49.926Z,50.10
2018-03-19T09:20:52.379Z,50.00
2018-03-19T09:21:54.850Z,49.20
2018-03-19T09:22:58.086Z,50.90
2018-03-19T09:24:01.327Z,49.60
2018-03-19T09:25:03.893Z,49.60
2018-03-19T09:26:06.357Z,52.50
2018-03-19T09:27:08.808Z,52.70
2018-03-19T09:28:12.056Z,50.90
2018-03-19T09:29:15.327Z,53.80
2018-03-19T09:30:17.885Z,53.70
2018-03-19T09:31:20.370Z,56.00
2018-03-19T09:32:22.838Z,54.90
2018-03-19T09:33:25.290Z,51.80
2018-03-19T09:34:28.560Z,48.10
2018-03-19T09:35:31.092Z,47.90
2018-03-19T09:36:33.573Z,47.30
2018-03-19T09:37:36.046Z,47.30
2018-03-19T09:38:38.520Z,49.10
2018-03-19T09:39:41.005Z,49.60
2018-03-19T09:40:43.479Z,52.70
2018-03-19T09:41:46.549Z,51.90
2018-03-19T09:42:49.013Z,52.90
2018-03-19T09:43:51.479Z,51.00
2018-03-19T09:44:54.764Z,47.00
2018-03-19T09:45:57.233Z,46.90
2018-03-19T09:47:00.464Z,51.10
2018-03-19T09:48:02.931Z,51.10
2018-03-19T09:49:05.387Z,50.60
2018-03-19T09:50:07.859Z,50.90
2018-03-19T09:51:11.088Z,50.50
2018-03-19T09:52:13.548Z,50.40
2018-03-19T09:53:16.122Z,48.80
2018-03-19T09:54:18.606Z,50.60
2018-03-19T09:55:21.222Z,50.60
2018-03-19T09:56:23.665Z,48.60
2018-03-19T09:57:26.146Z,48.80
2018-03-19T09:58:28.628Z,47.60
2018-03-19T09:59:31.133Z,46.50
2018-03-19T10:00:33.634Z,46.10
2018-03-19T10:01:36.858Z,47.00
2018-03-19T10:02:39.310Z,47.00
2018-03-19T10:03:41.803Z,47.80
2018-03-19T10:04:45.805Z,50.10
2018-03-19T10:05:48.277Z,50.00
2018-03-19T10:06:50.735Z,49.30
2018-03-19T10:07:53.978Z,50.30
2018-03-19T10:08:57.333Z,51.20
2018-03-19T10:09:59.786Z,51.20
2018-03-19T10:11:02.244Z,49.60
2018-03-19T10:12:04.796Z,49.30
2018-03-19T10:13:07.386Z,48.40
2018-03-19T10:14:09.881Z,47.70
2018-03-19T10:15:12.391Z,47.60
2018-03-19T10:16:14.910Z,50.40
2018-03-19T10:17:17.317Z,51.60
2018-03-19T10:18:19.799Z,48.70
2018-03-19T10:19:22.303Z,49.70
2018-03-19T10:20:25.535Z,48.50
2018-03-19T10:21:28.002Z,47.70
2018-03-19T10:22:30.467Z,46.20
2018-03-19T10:23:33.706Z,45.70
2018-03-19T10:24:36.996Z,46.20
2018-03-19T10:25:39.486Z,46.10
2018-03-19T10:26:43.454Z,44.60
2018-03-19T10:27:45.973Z,44.50
2018-03-19T10:28:48.441Z,44.30
2018-03-19T10:29:50.913Z,44.40
2018-03-19T10:30:54.182Z,45.70
2018-03-19T10:31:56.681Z,45.80
2018-03-19T10:32:59.914Z,48.40
2018-03-19T10:34:02.377Z,48.20
2018-03-19T10:35:04.845Z,49.10
2018-03-19T10:36:07.362Z,48.10
2018-03-19T10:37:10.878Z,44.80
2018-03-19T10:38:13.372Z,44.80
2018-03-19T10:39:15.855Z,45.50
2018-03-19T10:40:18.311Z,45.50
2018-03-19T10:41:21.622Z,45.30
2018-03-19T10:42:24.086Z,45.30
2018-03-19T10:43:27.347Z,48.60
2018-03-19T10:44:29.850Z,48.50
2018-03-19T10:45:33.141Z,45.00
2018-03-19T10:46:35.638Z,45.00
2018-03-19T10:47:38.179Z,44.00
2018-03-19T10:48:40.663Z,45.50
2018-03-19T10:49:44.043Z,46.50
2018-03-19T10:50:46.526Z,45.90
2018-03-19T10:51:48.992Z,46.60
2018-03-19T10:52:51.501Z,45.00
2018-03-19T10:53:53.950Z,45.50
2018-03-19T10:54:56.432Z,43.40
2018-03-19T10:55:58.897Z,43.50
2018-03-19T10:57:01.387Z,42.80
2018-03-19T10:58:04.669Z,43.60
2018-03-19T10:59:07.151Z,43.50
2018-03-19T11:00:13.190Z,43.70
2018-03-19T11:01:22.532Z,43.80
2018-03-19T11:02:27.756Z,43.70
2018-03-19T11:03:30.239Z,45.90
2018-03-19T11:04:32.686Z,45.10
2018-03-19T11:05:41.707Z,44.20
2018-03-19T11:06:45.179Z,44.10
2018-03-19T11:07:53.262Z,43.20
2018-03-19T11:08:56.532Z,42.90
2018-03-19T11:09:59.067Z,42.90
2018-03-19T11:11:01.590Z,43.30
2018-03-19T11:12:04.165Z,44.20
2018-03-19T11:13:06.684Z,44.20
2018-03-19T11:14:09.202Z,43.90
2018-03-19T11:15:11.787Z,42.90
2018-03-19T11:16:14.375Z,43.40
2018-03-19T11:17:17.609Z,42.10
2018-03-19T11:18:20.098Z,42.10
2018-03-19T11:19:22.603Z,42.10
2018-03-19T11:20:25.207Z,43.80
2018-03-19T11:21:27.820Z,45.00
2018-03-19T11:22:30.387Z,44.70
2018-03-19T11:23:32.923Z,43.60
2018-03-19T11:24:35.408Z,42.40
2018-03-19T11:25:38.648Z,42.10
2018-03-19T11:26:41.528Z,42.10
2018-03-19T11:27:44.044Z,41.70
2018-03-19T11:28:46.503Z,43.00
2018-03-19T11:29:48.981Z,39.90
2018-03-19T11:30:51.509Z,41.20
2018-03-19T11:31:54.045Z,40.70
2018-03-19T11:32:56.535Z,41.40
2018-03-19T11:34:00.627Z,44.20
2018-03-19T11:35:03.120Z,43.60
2018-03-19T11:36:05.666Z,45.00
2018-03-19T11:37:08.194Z,44.60
2018-03-19T11:38:10.740Z,45.10
2018-03-19T11:39:13.268Z,43.90
2018-03-19T11:40:15.781Z,42.60
2018-03-19T11:41:18.247Z,43.70
2018-03-19T11:42:20.735Z,42.60
2018-03-19T11:43:26.464Z,41.60
2018-03-19T11:44:29.053Z,40.80
2018-03-19T11:45:31.541Z,41.90
2018-03-19T11:46:34.095Z,39.10
2018-03-19T11:47:37.323Z,37.70
2018-03-19T11:48:41.072Z,38.40
2018-03-19T11:49:43.577Z,38.30
2018-03-19T11:50:46.047Z,38.10
2018-03-19T11:51:48.554Z,40.30
2018-03-19T11:52:51.894Z,40.40
2018-03-19T11:53:54.376Z,40.30
2018-03-19T11:54:56.890Z,40.10
2018-03-19T11:55:59.374Z,38.90
2018-03-19T11:57:02.737Z,40.90
2018-03-19T11:58:05.278Z,40.90
2018-03-19T11:59:08.430Z,41.30
2018-03-19T12:00:10.974Z,42.10
2018-03-19T12:01:13.457Z,42.50
2018-03-19T12:02:15.930Z,43.10
2018-03-19T12:03:18.459Z,42.90
2018-03-19T12:04:20.949Z,40.70
2018-03-19T12:05:23.442Z,40.50
2018-03-19T12:06:26.678Z,38.70
2018-03-19T12:07:29.906Z,39.20
2018-03-19T12:08:32.382Z,39.10
2018-03-19T12:09:34.902Z,39.50
2018-03-19T12:10:37.438Z,41.40
2018-03-19T12:11:39.938Z,41.10
2018-03-19T12:12:42.411Z,43.20
2018-03-19T12:13:44.879Z,42.80
2018-03-19T12:14:48.112Z,44.80
2018-03-19T12:15:51.358Z,43.60
2018-03-19T12:16:54.847Z,44.50
2018-03-19T12:17:57.304Z,44.50
2018-03-19T12:18:59.802Z,42.60
2018-03-19T12:20:02.290Z,42.50
2018-03-19T12:21:05.514Z,41.60
2018-03-19T12:22:08.805Z,41.90
2018-03-19T12:23:11.262Z,41.40
2018-03-19T12:24:13.786Z,42.50
2018-03-19T12:25:16.367Z,42.10
2018-03-19T12:26:18.835Z,40.50
2018-03-19T12:27:21.309Z,39.20
2018-03-19T12:28:24.568Z,40.70
2018-03-19T12:29:27.045Z,40.70
2018-03-19T12:30:29.505Z,40.10
2018-03-19T12:31:32.014Z,40.40
2018-03-19T12:32:34.478Z,40.00
2018-03-19T12:33:36.954Z,41.50
2018-03-19T12:34:40.176Z,42.10
2018-03-19T12:35:42.646Z,41.30
2018-03-19T12:36:45.198Z,41.60
2018-03-19T12:37:47.702Z,41.80
2018-03-19T12:38:50.186Z,41.80
2018-03-19T12:39:52.750Z,42.50
2018-03-19T12:40:55.217Z,41.40
2018-03-19T12:41:57.807Z,42.70
2018-03-19T12:43:00.258Z,42.10
2018-03-19T12:44:02.756Z,40.40
2018-03-19T12:45:05.234Z,40.80
2018-03-19T12:46:07.699Z,41.40
2018-03-19T12:47:10.168Z,41.10
2018-03-19T12:48:12.626Z,42.50
2018-03-19T12:49:15.953Z,42.40
2018-03-19T12:50:19.194Z,42.40
2018-03-19T12:51:21.663Z,41.50
2018-03-19T12:52:24.154Z,41.40
2018-03-19T12:53:26.610Z,41.80
2018-03-19T12:54:29.120Z,39.70
2018-03-19T12:55:32.349Z,39.30
2018-03-19T12:56:34.834Z,39.20
2018-03-19T12:57:37.298Z,38.30
2018-03-19T12:58:40.523Z,39.60
2018-03-19T12:59:43.045Z,39.50
2018-03-19T13:00:45.508Z,40.00
2018-03-19T13:01:48.757Z,40.40
2018-03-19T13:02:51.290Z,40.40
2018-03-19T13:03:53.786Z,40.30
2018-03-19T13:04:57.061Z,41.60
2018-03-19T13:05:59.551Z,41.50
2018-03-19T13:07:02.775Z,42.10
2018-03-19T13:08:05.350Z,41.50
2018-03-19T13:09:08.588Z,41.30
2018-03-19T13:10:11.070Z,41.20
2018-03-19T13:11:15.036Z,40.10
2018-03-19T13:12:17.508Z,40.00
2018-03-19T13:13:19.973Z,39.90
2018-03-19T13:14:22.441Z,39.80
2018-03-19T13:15:25.722Z,38.90
2018-03-19T13:16:28.265Z,38.90
2018-03-19T13:17:30.761Z,38.70
2018-03-19T13:18:33.213Z,38.60
2018-03-19T13:19:35.693Z,38.40
2018-03-19T13:20:38.190Z,36.60
2018-03-19T13:21:41.438Z,36.60
2018-03-19T13:22:44.669Z,37.50
2018-03-19T13:23:47.114Z,37.50
2018-03-19T13:24:50.354Z,37.60
2018-03-19T13:25:53.740Z,36.60
2018-03-19T13:26:56.182Z,36.60
2018-03-19T13:27:58.662Z,35.70